createdAt,value
2019-04-25T00:02:25.644Z,98.74
2019-04-25T00:04:54.968Z,99.12
2019-04-25T00:07:24.768Z,98.97
2019-04-25T00:09:56.422Z,98.49
2019-04-25T00:12:25.831Z,97.82
2019-04-25T00:14:55.161Z,98.10
2019-04-25T00:17:25.416Z,97.64
2019-04-25T00:19:55.179Z,99.81
2019-04-25T00:22:42.552Z,100.00
2019-04-25T00:25:21.868Z,100.00
2019-04-25T00:27:51.640Z,100.00
2019-04-25T00:30:22.686Z,100.00
2019-04-25T00:32:52.026Z,100.00
2019-04-25T00:35:21.708Z,100.00
2019-04-25T00:37:52.512Z,99.95
2019-04-25T00:40:22.170Z,100.00
2019-04-25T00:42:53.459Z,100.00
2019-04-25T00:45:22.927Z,100.00
2019-04-25T00:47:52.913Z,100.00
2019-04-25T00:50:22.442Z,99.23
2019-04-25T00:52:52.547Z,99.88
2019-04-25T00:55:28.697Z,100.00
2019-04-25T00:57:57.550Z,100.00
2019-04-25T01:00:49.046Z,100.00
2019-04-25T01:03:23.850Z,100.00
2019-04-25T01:05:53.673Z,100.00
2019-04-25T01:08:24.613Z,100.00
2019-04-25T01:10:54.248Z,100.00
2019-04-25T01:13:23.922Z,100.00
2019-04-25T01:15:53.764Z,100.00
2019-04-25T01:18:25.127Z,100.00
2019-04-25T01:20:55.462Z,100.00
2019-04-25T01:23:25.085Z,100.00
2019-04-25T01:25:54.640Z,100.00
2019-04-25T01:28:24.488Z,100.00
2019-04-25T01:30:55.142Z,100.00
2019-04-25T01:33:25.615Z,100.00
2019-04-25T01:36:10.348Z,100.00
2019-04-25T01:38:47.301Z,100.00
2019-04-25T01:41:34.295Z,100.00
2019-04-25T01:44:11.064Z,100.00
2019-04-25T01:46:44.239Z,100.00
2019-04-25T01:49:13.998Z,100.00
2019-04-25T01:51:43.724Z,100.00
2019-04-25T01:54:14.120Z,100.00
2019-04-25T01:56:44.324Z,100.00
2019-04-25T01:59:15.222Z,100.00
2019-04-25T02:01:44.838Z,100.00
2019-04-25T02:04:14.191Z,100.00
2019-04-25T02:06:43.554Z,100.00
2019-04-25T02:09:14.174Z,100.00
2019-04-25T02:11:58.895Z,100.00
2019-04-25T02:14:28.807Z,100.00
2019-04-25T02:16:58.444Z,100.00
2019-04-25T02:19:28.222Z,100.00
2019-04-25T02:21:57.863Z,100.00
2019-04-25T02:24:27.416Z,100.00
2019-04-25T02:26:57.270Z,100.00
2019-04-25T02:29:26.799Z,100.00
2019-04-25T02:31:59.201Z,100.00
2019-04-25T02:34:27.972Z,100.00
2019-04-25T02:37:00.676Z,100.00
2019-04-25T02:39:28.565Z,100.00
2019-04-25T02:42:00.540Z,100.00
2019-04-25T02:44:29.558Z,100.00
2019-04-25T02:47:16.257Z,100.00
2019-04-25T02:50:10.383Z,100.00
2019-04-25T02:52:49.137Z,100.00
2019-04-25T02:55:30.732Z,100.00
2019-04-25T02:57:49.404Z,100.00
2019-04-25T03:00:24.891Z,100.00
2019-04-25T03:02:54.806Z,100.00
2019-04-25T03:05:25.569Z,100.00
2019-04-25T03:07:55.050Z,100.00
2019-04-25T03:10:26.754Z,100.00
2019-04-25T03:12:55.314Z,100.00
2019-04-25T03:15:24.999Z,100.00
2019-04-25T03:17:54.799Z,100.00
2019-04-25T03:20:55.963Z,100.00
2019-04-25T03:23:42.690Z,100.00
2019-04-25T03:26:13.537Z,100.00
2019-04-25T03:28:43.862Z,100.00
2019-04-25T03:31:21.209Z,100.00
2019-04-25T03:33:45.987Z,100.00
2019-04-25T03:36:16.950Z,100.00
2019-04-25T03:38:46.687Z,100.00
2019-04-25T03:41:16.058Z,100.00
2019-04-25T03:43:45.590Z,100.00
2019-04-25T03:46:15.014Z,100.00
2019-04-25T03:48:44.576Z,100.00
2019-04-25T03:51:15.682Z,100.00
2019-04-25T03:53:50.471Z,100.00
2019-04-25T03:56:19.796Z,100.00
2019-04-25T03:58:49.114Z,100.00
2019-04-25T04:01:18.477Z,100.00
2019-04-25T04:03:47.804Z,100.00
2019-04-25T04:06:17.128Z,100.00
2019-04-25T04:08:49.179Z,100.00
2019-04-25T04:11:18.504Z,100.00
2019-04-25T04:13:47.820Z,100.00
2019-04-25T04:16:20.078Z,100.00
2019-04-25T04:18:51.197Z,100.00
2019-04-25T04:21:45.776Z,100.00
2019-04-25T04:24:19.179Z,100.00
2019-04-25T04:27:07.949Z,100.00
2019-04-25T04:29:36.960Z,100.00
2019-04-25T04:32:06.929Z,100.00
2019-04-25T04:34:36.501Z,100.00
2019-04-25T04:37:05.840Z,100.00
2019-04-25T04:39:35.670Z,100.00
2019-04-25T04:42:05.508Z,100.00
2019-04-25T04:44:34.875Z,100.00
2019-04-25T04:47:04.216Z,100.00
2019-04-25T04:49:34.125Z,100.00
2019-04-25T04:52:04.477Z,100.00
2019-04-25T04:54:36.123Z,100.00
2019-04-25T04:57:18.737Z,100.00
2019-04-25T04:59:36.427Z,100.00
2019-04-25T05:02:17.376Z,100.00
2019-04-25T05:05:08.495Z,100.00
2019-04-25T05:07:56.612Z,100.00
2019-04-25T05:10:26.070Z,100.00
2019-04-25T05:12:55.416Z,100.00
2019-04-25T05:15:24.987Z,100.00
2019-04-25T05:17:54.384Z,99.38
2019-04-25T05:20:24.363Z,99.88
2019-04-25T05:22:54.953Z,99.58
2019-04-25T05:25:24.850Z,97.62
2019-04-25T05:28:00.722Z,96.78
2019-04-25T05:30:34.681Z,98.11
2019-04-25T05:33:04.065Z,97.44
2019-04-25T05:35:33.699Z,94.97
2019-04-25T05:38:03.467Z,93.25
2019-04-25T05:40:34.630Z,91.95
2019-04-25T05:43:13.370Z,92.16
2019-04-25T05:45:44.019Z,91.06
2019-04-25T05:48:15.159Z,88.87
2019-04-25T05:50:44.835Z,88.26
2019-04-25T05:53:14.223Z,87.65
2019-04-25T05:55:44.152Z,87.28
2019-04-25T05:58:13.883Z,86.93
2019-04-25T06:00:44.165Z,89.47
2019-04-25T06:03:13.755Z,88.90
2019-04-25T06:05:43.488Z,88.64
2019-04-25T06:08:14.252Z,86.50
2019-04-25T06:11:01.528Z,84.59
2019-04-25T06:13:35.449Z,83.99
2019-04-25T06:16:16.260Z,82.48
2019-04-25T06:19:14.313Z,82.47
2019-04-25T06:21:38.513Z,80.46
2019-04-25T06:24:27.400Z,78.01
2019-04-25T06:27:16.190Z,76.68
2019-04-25T06:29:57.716Z,76.93
2019-04-25T06:32:18.639Z,76.58
2019-04-25T06:34:48.027Z,76.49
2019-04-25T06:37:17.342Z,77.56
2019-04-25T06:39:46.683Z,75.76
2019-04-25T06:42:16.045Z,74.49
2019-04-25T06:45:03.589Z,74.49
2019-04-25T06:48:00.035Z,74.66
2019-04-25T06:50:29.354Z,74.57
2019-04-25T06:52:58.691Z,75.19
2019-04-25T06:55:28.493Z,74.68
2019-04-25T06:58:09.146Z,75.38
2019-04-25T07:00:30.076Z,74.34
2019-04-25T07:03:00.309Z,74.07
2019-04-25T07:05:35.844Z,71.41
2019-04-25T07:08:00.578Z,70.33
2019-04-25T07:10:30.130Z,69.32
2019-04-25T07:12:59.458Z,69.07
2019-04-25T07:15:29.576Z,68.09
2019-04-25T07:17:59.412Z,66.70
2019-04-25T07:20:28.840Z,64.89
2019-04-25T07:22:58.168Z,64.68
2019-04-25T07:25:30.320Z,66.27
2019-04-25T07:28:29.719Z,67.15
2019-04-25T07:31:26.869Z,68.72
2019-04-25T07:33:59.927Z,67.91
2019-04-25T07:36:29.256Z,68.47
2019-04-25T07:39:09.787Z,65.90
2019-04-25T07:41:30.075Z,63.29
2019-04-25T07:43:59.400Z,63.19
2019-04-25T07:46:29.752Z,62.81
2019-04-25T07:48:59.283Z,61.73
2019-04-25T07:51:28.709Z,61.34
2019-04-25T07:53:58.069Z,58.38
2019-04-25T07:56:27.779Z,61.41
2019-04-25T07:58:57.362Z,62.14
2019-04-25T08:01:28.137Z,61.14
2019-04-25T08:03:58.107Z,60.66
2019-04-25T08:06:27.746Z,59.99
2019-04-25T08:08:57.818Z,59.75
2019-04-25T08:11:28.041Z,59.67
2019-04-25T08:14:19.165Z,58.44
2019-04-25T08:16:53.766Z,58.45
2019-04-25T08:19:25.198Z,59.09
2019-04-25T08:21:55.468Z,59.38
2019-04-25T08:24:25.105Z,60.22
2019-04-25T08:26:54.522Z,59.13
2019-04-25T08:29:25.427Z,57.59
2019-04-25T08:31:55.459Z,57.54
2019-04-25T08:34:24.830Z,57.41
2019-04-25T08:36:54.378Z,57.32
2019-04-25T08:39:24.315Z,55.27
2019-04-25T08:41:54.120Z,55.88
2019-04-25T08:44:24.232Z,55.31
2019-04-25T08:46:54.335Z,55.16
2019-04-25T08:49:40.069Z,53.54
2019-04-25T08:52:10.279Z,55.09
2019-04-25T08:54:52.208Z,52.86
2019-04-25T08:57:40.093Z,54.34
2019-04-25T09:00:24.171Z,52.76
2019-04-25T09:03:00.220Z,50.71
2019-04-25T09:05:38.811Z,53.98
2019-04-25T09:08:08.636Z,53.13
2019-04-25T09:10:39.999Z,52.51
2019-04-25T09:13:09.377Z,51.42
2019-04-25T09:15:39.448Z,51.34
2019-04-25T09:18:08.967Z,52.03
2019-04-25T09:20:40.864Z,50.44
2019-04-25T09:23:09.694Z,50.46
2019-04-25T09:25:39.029Z,53.14
2019-04-25T09:28:08.809Z,53.56
2019-04-25T09:30:38.371Z,52.32
2019-04-25T09:33:08.057Z,51.73
2019-04-25T09:35:37.807Z,52.01
2019-04-25T09:38:07.237Z,54.30
2019-04-25T09:40:37.238Z,52.26
2019-04-25T09:43:06.903Z,51.49
2019-04-25T09:46:01.096Z,49.03
2019-04-25T09:48:42.383Z,49.16
2019-04-25T09:51:20.105Z,47.82
2019-04-25T09:53:54.141Z,46.23
2019-04-25T09:56:36.625Z,46.34
2019-04-25T09:59:11.453Z,47.97
2019-04-25T10:01:43.970Z,46.84
2019-04-25T10:04:13.475Z,46.57
2019-04-25T10:06:44.339Z,46.40
2019-04-25T10:09:15.681Z,45.31
2019-04-25T10:11:47.700Z,46.57
2019-04-25T10:14:38.949Z,44.14
2019-04-25T10:17:09.049Z,42.55
2019-04-25T10:19:39.118Z,41.95
2019-04-25T10:22:08.885Z,42.52
2019-04-25T10:24:39.646Z,44.81
2019-04-25T10:27:09.237Z,44.70
2019-04-25T10:29:48.334Z,43.01
2019-04-25T10:32:15.048Z,43.28
2019-04-25T10:34:46.057Z,43.61
2019-04-25T10:37:16.581Z,42.81
2019-04-25T10:39:46.314Z,42.74
2019-04-25T10:42:15.947Z,42.94
2019-04-25T10:44:46.835Z,43.40
2019-04-25T10:47:16.500Z,45.23
2019-04-25T10:49:45.945Z,44.72
2019-04-25T10:52:15.796Z,44.33
2019-04-25T10:54:45.820Z,42.94
2019-04-25T10:57:16.321Z,43.76
2019-04-25T10:59:56.100Z,43.19
2019-04-25T11:02:16.868Z,42.89
2019-04-25T11:04:54.825Z,43.27
2019-04-25T11:07:27.349Z,43.22
2019-04-25T11:09:56.635Z,42.00
2019-04-25T11:12:26.151Z,39.43
2019-04-25T11:14:56.297Z,40.14
2019-04-25T11:17:25.847Z,40.04
2019-04-25T11:19:55.554Z,40.14
2019-04-25T11:22:25.280Z,39.26
2019-04-25T11:24:54.616Z,39.38
2019-04-25T11:27:24.536Z,39.42
2019-04-25T11:30:08.228Z,38.65
2019-04-25T11:32:27.400Z,39.23
2019-04-25T11:34:57.353Z,40.39
2019-04-25T11:37:28.419Z,39.75
2019-04-25T11:40:07.026Z,40.20
2019-04-25T11:42:36.540Z,39.83
2019-04-25T11:45:07.379Z,41.51
2019-04-25T11:47:39.469Z,40.75
2019-04-25T11:50:08.950Z,39.87
2019-04-25T11:52:38.679Z,42.24
2019-04-25T11:55:08.703Z,40.68
2019-04-25T11:57:38.217Z,39.37
2019-04-25T12:00:07.748Z,39.75
2019-04-25T12:02:37.190Z,39.03
2019-04-25T12:05:06.659Z,39.11
2019-04-25T12:07:36.016Z,40.38
2019-04-25T12:10:06.608Z,41.36
2019-04-25T12:12:37.282Z,44.05
2019-04-25T12:15:07.299Z,40.95
2019-04-25T12:17:36.629Z,40.05
2019-04-25T12:20:06.311Z,40.33
2019-04-25T12:22:38.535Z,41.24
2019-04-25T12:25:07.973Z,40.44
2019-04-25T12:27:37.332Z,42.98
2019-04-25T12:30:07.569Z,43.22
2019-04-25T12:32:36.891Z,44.23
2019-04-25T12:35:07.741Z,44.21
2019-04-25T12:37:37.466Z,44.37
2019-04-25T12:40:08.259Z,44.24
2019-04-25T12:42:37.607Z,45.03
2019-04-25T12:45:17.250Z,44.47
2019-04-25T12:47:47.787Z,42.86
2019-04-25T12:50:18.776Z,43.03
2019-04-25T12:52:48.903Z,44.97
2019-04-25T12:55:19.012Z,43.73
2019-04-25T12:57:49.441Z,44.03
2019-04-25T13:00:24.266Z,43.76
2019-04-25T13:02:54.543Z,43.84
2019-04-25T13:05:24.422Z,45.69
2019-04-25T13:07:57.028Z,44.47
2019-04-25T13:10:25.743Z,42.96
2019-04-25T13:12:55.452Z,44.17
2019-04-25T13:15:26.983Z,42.61
2019-04-25T13:17:56.879Z,42.11
2019-04-25T13:20:26.287Z,42.64
2019-04-25T13:22:55.851Z,42.43
2019-04-25T13:25:25.500Z,41.79
2019-04-25T13:28:20.060Z,42.27
2019-04-25T13:31:12.152Z,40.80
2019-04-25T13:33:59.915Z,41.37
2019-04-25T13:36:29.339Z,41.59
2019-04-25T13:38:58.681Z,41.17
2019-04-25T13:41:28.780Z,40.62
2019-04-25T13:43:58.895Z,41.63
2019-04-25T13:46:28.350Z,41.76
2019-04-25T13:48:57.811Z,42.27
2019-04-25T13:51:28.318Z,41.25
2019-04-25T13:53:57.971Z,42.77
2019-04-25T13:56:28.477Z,42.35
2019-04-25T13:58:58.326Z,42.65
2019-04-25T14:01:27.761Z,41.54
2019-04-25T14:03:57.125Z,42.15
2019-04-25T14:06:28.356Z,41.78
2019-04-25T14:08:57.995Z,39.64
2019-04-25T14:11:27.996Z,40.49
2019-04-25T14:13:57.381Z,39.96
2019-04-25T14:16:44.304Z,39.55
2019-04-25T14:19:31.398Z,41.44
2019-04-25T14:22:04.299Z,43.56
2019-04-25T14:24:35.693Z,43.67
2019-04-25T14:27:06.202Z,44.12
2019-04-25T14:29:35.770Z,44.23
2019-04-25T14:32:07.264Z,45.31
2019-04-25T14:34:36.706Z,45.11
2019-04-25T14:37:06.139Z,43.49
2019-04-25T14:39:36.024Z,44.69
2019-04-25T14:42:05.501Z,46.05
2019-04-25T14:44:34.961Z,46.77
2019-04-25T14:47:05.430Z,47.87
2019-04-25T14:49:34.746Z,48.22
2019-04-25T14:52:04.540Z,49.23
2019-04-25T14:54:39.927Z,49.09
2019-04-25T14:57:13.862Z,49.67
2019-04-25T14:59:43.197Z,50.12
2019-04-25T15:02:12.959Z,49.37
2019-04-25T15:04:42.710Z,48.29
2019-04-25T15:07:12.041Z,50.27
2019-04-25T15:09:41.515Z,48.81
2019-04-25T15:12:11.187Z,50.88
2019-04-25T15:14:41.311Z,49.61
2019-04-25T15:17:11.249Z,49.76
2019-04-25T15:19:40.670Z,49.69
2019-04-25T15:22:10.674Z,48.83
2019-04-25T15:24:42.902Z,48.54
2019-04-25T15:27:12.264Z,49.79
2019-04-25T15:29:42.579Z,50.10
2019-04-25T15:32:14.816Z,49.18
2019-04-25T15:34:50.490Z,51.58
2019-04-25T15:37:38.691Z,51.64
2019-04-25T15:40:17.787Z,51.94
2019-04-25T15:42:59.031Z,52.96
2019-04-25T15:46:05.502Z,53.26
2019-04-25T15:48:34.818Z,53.27
2019-04-25T15:51:04.259Z,54.21
2019-04-25T15:53:33.665Z,53.67
2019-04-25T15:56:03.371Z,55.90
2019-04-25T15:58:32.697Z,54.55
2019-04-25T16:01:02.876Z,55.17
2019-04-25T16:03:32.956Z,54.36
2019-04-25T16:06:02.865Z,53.90
2019-04-25T16:08:32.999Z,55.03
2019-04-25T16:11:02.750Z,53.91
2019-04-25T16:13:32.269Z,55.50
2019-04-25T16:16:02.612Z,55.58
2019-04-25T16:18:31.929Z,56.56
2019-04-25T16:21:01.631Z,56.37
2019-04-25T16:23:32.130Z,54.82
2019-04-25T16:26:01.743Z,54.83
2019-04-25T16:28:31.746Z,56.06
2019-04-25T16:31:04.265Z,56.79
2019-04-25T16:33:35.565Z,58.28
2019-04-25T16:36:05.228Z,57.73
2019-04-25T16:38:35.393Z,55.72
2019-04-25T16:41:07.315Z,56.92
2019-04-25T16:43:41.030Z,58.03
2019-04-25T16:46:16.547Z,57.38
2019-04-25T16:48:46.270Z,58.12
2019-04-25T16:51:17.366Z,58.26
2019-04-25T16:53:46.743Z,58.08
2019-04-25T16:56:16.338Z,59.89
2019-04-25T16:58:45.668Z,59.79
2019-04-25T17:01:16.023Z,59.80
2019-04-25T17:03:45.522Z,60.36
2019-04-25T17:06:15.243Z,62.79
2019-04-25T17:08:44.716Z,61.46
2019-04-25T17:11:14.980Z,62.05
2019-04-25T17:13:56.236Z,61.29
2019-04-25T17:17:00.027Z,61.07
2019-04-25T17:19:47.291Z,62.25
2019-04-25T17:22:16.752Z,62.77
2019-04-25T17:24:46.100Z,63.54
2019-04-25T17:27:15.540Z,64.44
2019-04-25T17:29:44.914Z,63.46
2019-04-25T17:32:46.819Z,64.27
2019-04-25T17:35:26.230Z,64.64
2019-04-25T17:38:03.744Z,64.63
2019-04-25T17:40:33.880Z,67.01
2019-04-25T17:43:10.838Z,65.31
2019-04-25T17:45:37.936Z,63.68
2019-04-25T17:48:07.259Z,65.69
2019-04-25T17:50:37.510Z,65.00
2019-04-25T17:53:07.219Z,65.91
2019-04-25T17:55:37.381Z,66.16
2019-04-25T17:58:06.831Z,65.78
2019-04-25T18:00:38.288Z,65.71
2019-04-25T18:03:09.456Z,66.48
2019-04-25T18:05:39.725Z,67.09
2019-04-25T18:08:09.258Z,67.45
2019-04-25T18:10:38.600Z,67.44
2019-04-25T18:13:09.475Z,65.42
2019-04-25T18:15:49.462Z,65.72
2019-04-25T18:18:31.567Z,66.73
2019-04-25T18:21:00.935Z,67.46
2019-04-25T18:23:55.167Z,66.55
2019-04-25T18:26:35.241Z,66.83
2019-04-25T18:29:08.585Z,65.31
2019-04-25T18:31:37.916Z,67.35
2019-04-25T18:34:15.121Z,67.00
2019-04-25T18:36:54.555Z,66.59
2019-04-25T18:39:34.368Z,67.46
2019-04-25T18:42:31.811Z,68.00
2019-04-25T18:45:03.936Z,68.43
2019-04-25T18:47:33.252Z,68.34
2019-04-25T18:50:02.666Z,69.40
2019-04-25T18:52:53.710Z,69.40
2019-04-25T18:55:29.583Z,67.29
2019-04-25T18:58:16.683Z,69.36
2019-04-25T19:00:54.685Z,67.88
2019-04-25T19:03:58.242Z,68.46
2019-04-25T19:06:27.968Z,67.42
2019-04-25T19:08:57.306Z,70.20
2019-04-25T19:11:26.878Z,69.45
2019-04-25T19:13:56.438Z,69.91
2019-04-25T19:16:25.780Z,69.87
2019-04-25T19:18:56.175Z,69.86
2019-04-25T19:21:25.536Z,71.04
2019-04-25T19:23:54.859Z,70.64
2019-04-25T19:26:24.625Z,69.71
2019-04-25T19:28:54.131Z,71.14
2019-04-25T19:31:23.459Z,73.36
2019-04-25T19:33:53.405Z,72.44
2019-04-25T19:36:23.007Z,71.58
2019-04-25T19:38:52.566Z,72.29
2019-04-25T19:41:37.351Z,72.95
2019-04-25T19:44:12.636Z,71.79
2019-04-25T19:46:44.830Z,70.89
2019-04-25T19:49:14.816Z,70.58
2019-04-25T19:51:45.113Z,71.85
2019-04-25T19:54:14.591Z,72.01
2019-04-25T19:56:44.016Z,71.90
2019-04-25T19:59:13.567Z,71.82
2019-04-25T20:01:44.049Z,73.14
2019-04-25T20:04:35.615Z,73.31
2019-04-25T20:07:32.925Z,72.55
2019-04-25T20:10:36.421Z,73.58
2019-04-25T20:13:05.823Z,74.20
2019-04-25T20:15:35.192Z,75.07
2019-04-25T20:18:04.911Z,73.85
2019-04-25T20:20:34.756Z,75.09
2019-04-25T20:23:04.084Z,75.30
2019-04-25T20:25:33.574Z,76.59
2019-04-25T20:28:03.851Z,77.74
2019-04-25T20:30:33.178Z,76.97
2019-04-25T20:33:02.605Z,76.12
2019-04-25T20:35:32.007Z,77.57
2019-04-25T20:38:01.344Z,79.51
2019-04-25T20:40:30.772Z,80.26
2019-04-25T20:43:00.191Z,78.53
2019-04-25T20:45:29.977Z,80.19
2019-04-25T20:47:59.811Z,79.49
2019-04-25T20:50:29.172Z,79.56
2019-04-25T20:53:00.799Z,79.46
2019-04-25T20:55:30.476Z,79.62
2019-04-25T20:57:59.836Z,80.46
2019-04-25T21:00:51.615Z,81.00
2019-04-25T21:03:21.464Z,82.98
2019-04-25T21:05:53.105Z,83.19
2019-04-25T21:08:24.516Z,84.51
2019-04-25T21:10:54.140Z,82.99
2019-04-25T21:13:34.687Z,84.42
2019-04-25T21:16:29.642Z,84.87
2019-04-25T21:19:06.235Z,85.45
2019-04-25T21:21:35.647Z,84.55
2019-04-25T21:24:05.308Z,86.68
2019-04-25T21:26:34.791Z,89.62
2019-04-25T21:29:04.219Z,90.08
2019-04-25T21:31:33.558Z,87.11
2019-04-25T21:34:02.968Z,81.38
2019-04-25T21:36:32.627Z,83.45
2019-04-25T21:39:02.355Z,84.36
2019-04-25T21:41:48.080Z,85.03
2019-04-25T21:44:18.059Z,83.60
2019-04-25T21:46:47.467Z,81.08
2019-04-25T21:49:17.720Z,81.13
2019-04-25T21:51:47.039Z,84.77
2019-04-25T21:54:16.856Z,85.99
2019-04-25T21:56:46.728Z,86.58
2019-04-25T21:59:16.566Z,87.83
2019-04-25T22:01:46.323Z,90.27
2019-04-25T22:04:16.063Z,91.96
2019-04-25T22:06:45.684Z,92.90
2019-04-25T22:09:17.649Z,93.28
2019-04-25T22:11:47.978Z,92.69
2019-04-25T22:14:17.959Z,92.54
2019-04-25T22:16:48.347Z,90.55
2019-04-25T22:19:18.327Z,91.22
2019-04-25T22:21:48.347Z,91.73
2019-04-25T22:24:17.733Z,91.41
2019-04-25T22:26:48.936Z,91.55
2019-04-25T22:29:18.345Z,94.71
2019-04-25T22:31:56.910Z,96.11
2019-04-25T22:34:32.554Z,96.59
2019-04-25T22:37:02.138Z,95.50
2019-04-25T22:39:31.620Z,94.23
2019-04-25T22:42:01.902Z,95.02
2019-04-25T22:44:31.718Z,95.18
2019-04-25T22:47:02.322Z,96.39
2019-04-25T22:49:31.777Z,96.17
2019-04-25T22:52:01.774Z,96.42
2019-04-25T22:54:32.385Z,99.53
2019-04-25T22:57:02.524Z,100.00
2019-04-25T22:59:32.543Z,100.00
2019-04-25T23:02:37.312Z,99.79
2019-04-25T23:05:28.955Z,99.00
2019-04-25T23:07:58.775Z,99.32
2019-04-25T23:10:28.587Z,100.00
2019-04-25T23:12:58.367Z,100.00
2019-04-25T23:15:27.686Z,100.00
2019-04-25T23:17:57.407Z,100.00
2019-04-25T23:20:26.793Z,100.00
2019-04-25T23:22:57.069Z,100.00
2019-04-25T23:25:32.151Z,100.00
2019-04-25T23:28:12.311Z,100.00
2019-04-25T23:30:59.975Z,100.00
2019-04-25T23:33:29.303Z,100.00
2019-04-25T23:35:59.403Z,99.33
2019-04-25T23:38:28.792Z,98.22
2019-04-25T23:40:58.112Z,97.97
2019-04-25T23:43:27.408Z,99.91
2019-04-25T23:45:57.935Z,100.00
2019-04-25T23:48:27.559Z,100.00
2019-04-25T23:50:56.869Z,100.00
2019-04-25T23:53:26.435Z,100.00
2019-04-25T23:55:55.745Z,100.00
2019-04-25T23:58:25.082Z,100.00
